Time;durP1;ratioP1;P1;durP2;ratioP2;P2;SDS_P1;SDS_P2;PMS_P1;PMS_P2;Temp;Humidity;BMP_temperature;BMP_pressure;BME280_temperature;BME280_humidity;BME280_pressure;Samples;Min_cycle;Max_cycle;Signal;HPM_P1;HPM_P2
2022/01/21 00:00:08;;;;;;;;;1.00;1.00;;;;;20.70;31.42;103085.41;4975340;28;45187;-59
2022/01/21 00:02:34;;;;;;;;;2.50;1.50;;;;;20.76;30.92;103087.09;4975467;28;45221;-60
2022/01/21 00:04:59;;;;;;;;;3.25;2.50;;;;;20.80;30.98;103087.88;4974364;28;45622;-55
2022/01/21 00:07:24;;;;;;;;;3.00;3.00;;;;;20.81;31.21;103085.25;4975020;28;45320;-59
2022/01/21 00:09:50;;;;;;;;;4.25;1.75;;;;;20.84;30.78;103082.53;4957858;28;45392;-54
2022/01/21 00:12:15;;;;;;;;;2.00;2.00;;;;;20.88;31.23;103078.06;4975573;28;45561;-60
2022/01/21 00:14:40;;;;;;;;;3.00;2.00;;;;;20.87;31.16;103084.25;4974945;28;46725;-55
2022/01/21 00:17:06;;;;;;;;;3.25;3.00;;;;;20.88;31.15;103078.06;4975138;28;45387;-57
2022/01/21 00:19:38;;;;;;;;;2.50;2.50;;;;;20.89;31.03;103071.88;4975158;28;45494;-55
2022/01/21 00:30:20;;;;;;;;;3.25;3.00;;;;;20.91;30.92;103063.94;4975078;28;45324;-55
2022/01/21 00:32:47;;;;;;;;;3.00;2.00;;;;;20.93;30.49;103065.66;4975040;28;45380;-58
2022/01/21 00:35:14;;;;;;;;;1.25;1.25;;;;;20.91;30.49;103062.16;4974707;28;45818;-58
2022/01/21 00:37:41;;;;;;;;;3.00;3.00;;;;;20.93;30.81;103068.28;4974691;28;45669;-58
2022/01/21 00:40:10;;;;;;;;;2.50;2.50;;;;;20.93;30.82;103062.16;4974810;28;45365;-53
2022/01/21 00:45:11;;;;;;;;;4.00;2.75;;;;;20.92;30.75;103061.28;4974571;28;45450;-52
2022/01/21 00:47:36;;;;;;;;;4.00;2.75;;;;;20.93;30.97;103067.44;4974504;28;45859;-51
2022/01/21 00:50:03;;;;;;;;;1.75;1.75;;;;;20.91;30.59;103049.00;4974822;28;45705;-60
2022/01/21 00:52:28;;;;;;;;;6.25;3.75;;;;;20.90;30.63;103049.88;4974999;28;45286;-54
2022/01/21 00:54:53;;;;;;;;;4.00;2.00;;;;;20.90;30.62;103055.16;4974791;28;45454;-51
2022/01/21 00:57:19;;;;;;;;;3.00;3.00;;;;;20.90;30.91;103057.78;4957116;28;51763;-56
2022/01/21 00:59:44;;;;;;;;;1.00;1.00;;;;;20.88;30.49;103049.09;4974718;28;45383;-60
2022/01/21 01:02:09;;;;;;;;;4.25;3.00;;;;;20.89;30.90;103061.34;4974888;28;45433;-57
2022/01/21 01:04:35;;;;;;;;;2.50;1.00;;;;;20.88;30.69;103057.00;4974477;28;46109;-56
2022/01/21 01:07:00;;;;;;;;;2.75;2.75;;;;;20.89;30.46;103063.13;4956968;28;45277;-55
2022/01/21 01:09:26;;;;;;;;;2.00;2.00;;;;;20.87;30.29;103065.78;4974486;28;45289;-52
2022/01/21 01:20:06;;;;;;;;;4.00;2.00;;;;;20.84;31.01;103052.69;4974552;28;45221;-54
2022/01/21 01:28:03;;;;;;;;;2.75;2.75;;;;;20.81;30.98;103058.00;4974125;28;45807;-60
2022/01/21 01:30:31;;;;;;;;;3.75;2.00;;;;;20.80;30.57;103057.16;4974202;28;45300;-60
2022/01/21 01:32:59;;;;;;;;;2.75;2.75;;;;;20.79;30.84;103051.88;4957159;28;45400;-58
2022/01/21 01:35:28;;;;;;;;;5.00;4.00;;;;;20.77;30.63;103045.81;4974265;28;47263;-59
2022/01/21 01:51:10;;;;;;;;;2.00;2.00;;;;;20.67;30.92;103063.53;4973966;28;45217;-54
2022/01/21 01:53:42;;;;;;;;;2.00;2.00;;;;;20.66;31.24;103065.31;4973995;28;45441;-52
2022/01/21 01:56:10;;;;;;;;;2.50;2.00;;;;;20.66;31.03;103064.44;4973715;28;46679;-58
2022/01/21 01:58:41;;;;;;;;;2.75;1.75;;;;;20.64;30.67;103066.22;4973768;28;45808;-56
2022/01/21 02:01:07;;;;;;;;;5.00;2.00;;;;;20.63;30.73;103068.00;4973895;28;45328;-54
2022/01/21 02:03:33;;;;;;;;;3.25;2.50;;;;;20.63;30.91;103075.03;4973974;28;45505;-53
2022/01/21 02:05:59;;;;;;;;;1.00;1.00;;;;;20.60;30.64;103069.84;4973628;28;45517;-54
2022/01/21 02:08:27;;;;;;;;;2.00;2.00;;;;;20.59;31.08;103074.22;4973854;28;45396;-56
2022/01/21 02:10:52;;;;;;;;;0.00;0.00;;;;;20.55;30.95;103069.94;4955854;28;45431;-52
2022/01/21 02:13:29;;;;;;;;;3.00;1.75;;;;;20.54;30.66;103076.94;4972631;28;46156;-53
2022/01/21 02:16:06;;;;;;;;;2.00;2.00;;;;;20.55;31.09;103075.19;4973545;28;46354;-56
2022/01/21 02:21:39;;;;;;;;;1.50;1.50;;;;;20.50;31.16;103066.50;4973879;28;45831;-53
2022/01/21 02:24:14;;;;;;;;;1.50;1.50;;;;;20.48;31.03;103073.56;4973739;28;45371;-52
2022/01/21 02:26:40;;;;;;;;;2.00;2.00;;;;;20.46;30.85;103070.09;4973268;28;46094;-56
2022/01/21 02:29:07;;;;;;;;;1.25;1.25;;;;;20.45;30.97;103076.28;4974714;28;45436;-59
2022/01/21 02:31:35;;;;;;;;;2.75;1.75;;;;;20.43;31.03;103075.44;4976426;28;45339;-56
2022/01/21 02:34:01;;;;;;;;;2.00;2.00;;;;;20.43;31.27;103072.81;4976592;28;45422;-55
2022/01/21 02:36:27;;;;;;;;;1.50;1.50;;;;;20.41;30.86;103059.66;4976530;28;45680;-51
2022/01/21 02:38:53;;;;;;;;;2.00;1.25;;;;;20.43;31.40;103065.75;4958681;28;46032;-57
2022/01/21 02:41:18;;;;;;;;;3.50;3.25;;;;;20.46;31.31;103067.44;4976359;28;45179;-53
2022/01/21 02:43:44;;;;;;;;;2.25;1.75;;;;;20.47;30.71;103069.19;4976364;28;45730;-59
2022/01/21 02:46:10;;;;;;;;;2.25;2.25;;;;;20.50;30.83;103061.25;4976000;28;45972;-51
2022/01/21 02:48:38;;;;;;;;;2.00;2.00;;;;;20.54;31.07;103070.84;4976072;28;45483;-51
2022/01/21 02:51:10;;;;;;;;;1.75;1.75;;;;;20.58;31.27;103069.00;4976125;28;45450;-59
2022/01/21 02:56:16;;;;;;;;;2.75;2.00;;;;;20.66;30.82;103067.94;4975964;28;45299;-53
2022/01/21 02:58:43;;;;;;;;;4.25;2.50;;;;;20.70;30.87;103058.22;4975967;28;45295;-55
2022/01/21 03:01:08;;;;;;;;;2.00;2.00;;;;;20.74;30.75;103066.91;4976046;28;45379;-53
2022/01/21 03:03:34;;;;;;;;;3.00;2.50;;;;;20.76;30.98;103070.44;4976076;28;45298;-59
2022/01/21 03:06:01;;;;;;;;;1.00;1.00;;;;;20.80;31.16;103074.72;4976097;28;46739;-59
2022/01/21 03:08:27;;;;;;;;;2.00;1.75;;;;;20.82;30.64;103076.44;4976049;28;45379;-58
2022/01/21 03:10:52;;;;;;;;;2.00;1.25;;;;;20.85;31.17;103067.59;4958051;28;45475;-51
2022/01/21 03:13:22;;;;;;;;;2.00;2.00;;;;;20.87;30.81;103073.69;4975987;28;45403;-57
2022/01/21 03:15:48;;;;;;;;;3.00;2.00;;;;;20.88;30.93;103072.81;4975608;28;45348;-50
2022/01/21 03:18:13;;;;;;;;;2.00;1.25;;;;;20.89;31.09;103071.03;4975774;28;45249;-59
2022/01/21 03:20:39;;;;;;;;;1.00;1.00;;;;;20.90;30.45;103073.63;4975884;28;45739;-51
2022/01/21 03:23:04;;;;;;;;;2.00;2.00;;;;;20.88;30.46;103067.53;4976096;28;45493;-59
2022/01/21 03:25:30;;;;;;;;;2.00;2.00;;;;;20.91;30.94;103075.34;4975701;28;46584;-54
2022/01/21 03:27:55;;;;;;;;;1.75;1.75;;;;;20.91;30.99;103074.50;4975635;28;45371;-58
2022/01/21 03:30:20;;;;;;;;;4.00;2.00;;;;;20.92;30.98;103081.50;4975707;28;45408;-57
2022/01/21 03:32:46;;;;;;;;;2.25;1.75;;;;;20.93;30.94;103078.84;4958368;28;45657;-59
2022/01/21 03:35:12;;;;;;;;;3.00;1.00;;;;;20.93;30.35;103077.97;4957982;28;47906;-57
2022/01/21 03:37:37;;;;;;;;;3.25;1.50;;;;;20.92;30.65;103079.72;4975524;28;45802;-57
2022/01/21 03:40:04;;;;;;;;;2.50;1.00;;;;;20.93;30.80;103083.25;4957086;28;45456;-58
2022/01/21 03:42:30;;;;;;;;;3.50;1.75;;;;;20.92;30.94;103082.38;4976083;28;45538;-59
2022/01/21 03:44:55;;;;;;;;;2.00;2.00;;;;;20.93;30.44;103083.25;4975286;28;45410;-59
2022/01/21 03:47:20;;;;;;;;;1.00;1.00;;;;;20.93;30.88;103080.63;4975476;28;45183;-56
2022/01/21 03:49:54;;;;;;;;;2.50;2.00;;;;;20.90;30.71;103081.53;4975629;28;45344;-54
2022/01/21 03:52:19;;;;;;;;;2.00;2.00;;;;;20.91;30.68;103091.16;4975406;28;45382;-59
2022/01/21 03:54:45;;;;;;;;;3.25;3.25;;;;;20.92;31.14;103092.06;4957758;28;47033;-50
2022/01/21 03:57:10;;;;;;;;;2.75;2.75;;;;;20.89;30.41;103098.22;4975312;28;45729;-55
2022/01/21 03:59:36;;;;;;;;;1.75;1.75;;;;;20.91;30.61;103090.31;4975390;28;45318;-52
2022/01/21 04:02:04;;;;;;;;;3.00;1.50;;;;;20.87;30.55;103081.63;4975865;28;45249;-55
2022/01/21 04:04:30;;;;;;;;;2.00;2.00;;;;;20.87;30.68;103084.25;4975510;28;45770;-54
2022/01/21 04:06:55;;;;;;;;;1.50;1.50;;;;;20.86;30.86;103077.25;4975179;28;45347;-55
2022/01/21 04:09:21;;;;;;;;;1.50;1.50;;;;;20.86;30.78;103090.41;4975104;28;45379;-50
2022/01/21 04:11:46;;;;;;;;;3.00;3.00;;;;;20.85;30.67;103097.44;4975499;28;45541;-53
2022/01/21 04:14:11;;;;;;;;;2.00;2.00;;;;;20.86;30.26;103100.97;4975122;28;45400;-50
2022/01/21 04:16:36;;;;;;;;;2.25;2.25;;;;;20.84;30.67;103094.84;4974989;28;45382;-53
2022/01/21 04:19:02;;;;;;;;;4.75;1.25;;;;;20.84;30.35;103094.84;4975471;28;45384;-50
2022/01/21 04:21:27;;;;;;;;;1.50;1.50;;;;;20.81;30.77;103095.78;4975361;28;45580;-55
2022/01/21 04:23:53;;;;;;;;;2.00;2.00;;;;;20.81;30.43;103105.44;4974769;28;46357;-52
2022/01/21 04:26:18;;;;;;;;;1.00;1.00;;;;;20.79;30.47;103097.56;4975023;28;45435;-54
2022/01/21 04:28:43;;;;;;;;;1.25;1.25;;;;;20.79;30.73;103112.50;4974970;28;45421;-56
2022/01/21 04:31:09;;;;;;;;;3.00;3.00;;;;;20.78;30.89;103109.03;4975240;28;45560;-56
2022/01/21 04:33:34;;;;;;;;;1.25;1.00;;;;;20.78;30.50;103110.81;4975073;28;46200;-56
2022/01/21 04:35:59;;;;;;;;;2.00;2.00;;;;;20.77;30.93;103109.06;4975009;28;45337;-49
2022/01/21 04:38:26;;;;;;;;;1.75;1.75;;;;;20.75;30.81;103113.50;4975065;28;45365;-58
2022/01/21 04:41:06;;;;;;;;;3.75;2.75;;;;;20.73;30.93;103102.06;4975167;28;45561;-52
2022/01/21 04:48:59;;;;;;;;;3.00;1.00;;;;;20.68;30.63;103107.44;4974744;28;45311;-58
2022/01/21 04:51:29;;;;;;;;;3.75;2.75;;;;;20.67;31.03;103108.31;4974821;28;45529;-57
2022/01/21 04:53:55;;;;;;;;;2.75;2.75;;;;;20.66;30.42;103101.31;4957047;28;48117;-56
2022/01/21 04:56:21;;;;;;;;;2.00;2.00;;;;;20.63;30.82;103093.47;4957328;28;45531;-57
2022/01/21 04:58:47;;;;;;;;;4.25;2.50;;;;;20.62;30.66;103103.16;4957496;28;45437;-51
2022/01/21 05:01:13;;;;;;;;;2.00;2.00;;;;;20.60;30.75;103097.03;4974849;28;45598;-58
2022/01/21 05:03:39;;;;;;;;;4.00;1.50;;;;;20.60;31.05;103102.31;4974443;28;46512;-55
2022/01/21 05:06:05;;;;;;;;;2.00;2.00;;;;;20.59;30.68;103105.84;4974907;28;45773;-55
2022/01/21 05:08:48;;;;;;;;;3.00;3.00;;;;;20.57;30.89;103107.63;4974727;28;45357;-55
2022/01/21 05:11:16;;;;;;;;;2.75;1.00;;;;;20.55;30.82;103109.44;4974701;28;45412;-59
2022/01/21 05:13:44;;;;;;;;;3.00;1.00;;;;;20.53;30.49;103111.25;4974132;28;45375;-55
2022/01/21 05:16:31;;;;;;;;;2.25;2.00;;;;;20.53;30.60;103111.25;4956889;28;45763;-59
2022/01/21 05:18:58;;;;;;;;;1.50;1.50;;;;;20.50;30.61;103117.44;4974246;28;45171;-59
2022/01/21 05:21:23;;;;;;;;;3.25;2.25;;;;;20.48;30.51;103115.72;4974559;28;45577;-58
2022/01/21 05:23:48;;;;;;;;;3.75;1.75;;;;;20.47;30.90;103113.97;4974124;28;46276;-57
2022/01/21 05:26:14;;;;;;;;;2.50;1.25;;;;;20.45;31.13;103107.91;4974113;28;45395;-57
2022/01/21 05:28:39;;;;;;;;;0.75;0.75;;;;;20.47;31.08;103101.69;4956820;28;45326;-56
2022/01/21 05:31:05;;;;;;;;;3.25;2.50;;;;;20.49;31.25;103104.28;4974686;28;45523;-52
2022/01/21 05:33:30;;;;;;;;;3.50;2.00;;;;;20.50;31.08;103120.09;4973902;28;46110;-60
2022/01/21 05:35:55;;;;;;;;;1.50;1.50;;;;;20.52;30.83;103115.63;4973960;28;45295;-57
2022/01/21 05:38:21;;;;;;;;;0.75;0.75;;;;;20.55;31.14;103125.25;4974067;28;45358;-55
2022/01/21 05:40:47;;;;;;;;;2.00;2.00;;;;;20.61;31.29;103124.28;4974297;28;45514;-56
2022/01/21 05:43:12;;;;;;;;;2.00;2.00;;;;;20.64;30.70;103124.19;4973877;28;46377;-56
2022/01/21 05:48:22;;;;;;;;;3.50;2.00;;;;;20.73;31.24;103123.16;4973961;28;45447;-56
2022/01/21 05:50:47;;;;;;;;;1.50;1.50;;;;;20.76;31.00;103134.53;4974139;28;45249;-58
2022/01/21 05:53:13;;;;;;;;;3.25;3.25;;;;;20.78;30.68;103132.72;4973593;28;45673;-59
2022/01/21 05:55:41;;;;;;;;;2.00;1.00;;;;;20.82;31.02;103131.78;4973996;28;45391;-53
2022/01/21 05:58:08;;;;;;;;;1.00;1.00;;;;;20.82;30.92;103129.16;4974108;28;45257;-60
2022/01/21 06:00:34;;;;;;;;;1.00;1.00;;;;;20.87;30.54;103143.97;4974342;28;45571;-58
2022/01/21 06:03:00;;;;;;;;;2.25;1.75;;;;;20.88;30.87;103138.69;4956280;28;47180;-53
2022/01/21 06:05:25;;;;;;;;;2.00;2.00;;;;;20.89;30.74;103140.41;4976596;28;45462;-58
2022/01/21 06:07:51;;;;;;;;;2.50;2.00;;;;;20.93;30.75;103142.09;4976650;28;45518;-54
2022/01/21 06:10:16;;;;;;;;;2.00;2.00;;;;;20.93;30.54;103147.38;4976764;28;45364;-54
2022/01/21 06:12:42;;;;;;;;;3.00;2.00;;;;;20.93;30.58;103142.09;4976463;28;45669;-52
2022/01/21 06:15:07;;;;;;;;;1.50;1.50;;;;;20.94;30.78;103143.84;4976702;28;45397;-52
2022/01/21 06:17:34;;;;;;;;;2.75;1.00;;;;;20.94;30.19;103149.09;4976543;28;45570;-53
2022/01/21 06:19:59;;;;;;;;;2.00;2.00;;;;;20.94;30.32;103143.84;4976656;28;45970;-53
2022/01/21 06:22:25;;;;;;;;;2.00;1.00;;;;;20.95;30.39;103153.47;4975083;28;48091;-54
2022/01/21 06:24:53;;;;;;;;;2.00;1.00;;;;;20.96;30.72;103142.03;4958939;28;46040;-56
2022/01/21 06:27:25;;;;;;;;;3.00;2.00;;;;;20.94;30.38;103142.97;4976493;28;45245;-58
2022/01/21 06:29:51;;;;;;;;;1.00;1.00;;;;;20.95;30.40;103142.94;4976608;28;45426;-57
2022/01/21 06:32:16;;;;;;;;;1.75;1.75;;;;;20.94;30.59;103143.84;4976062;28;46584;-56
2022/01/21 06:34:42;;;;;;;;;3.00;1.50;;;;;20.96;30.61;103142.03;4976296;28;45395;-56
2022/01/21 06:37:07;;;;;;;;;2.00;1.50;;;;;20.94;30.24;103133.28;4976615;28;45410;-58
2022/01/21 06:39:32;;;;;;;;;2.25;2.25;;;;;20.94;30.48;103138.56;4976520;28;45665;-52
2022/01/21 06:41:58;;;;;;;;;3.00;2.50;;;;;20.96;30.42;103143.78;4976145;28;46591;-56
2022/01/21 06:44:23;;;;;;;;;2.00;2.00;;;;;20.94;29.99;103146.47;4976091;28;45309;-58
2022/01/21 06:46:48;;;;;;;;;1.00;1.00;;;;;20.92;30.54;103145.63;4976355;28;45455;-54
2022/01/21 06:49:14;;;;;;;;;1.00;1.00;;;;;20.92;30.28;103156.19;4976362;28;45510;-53
2022/01/21 06:51:39;;;;;;;;;2.50;2.00;;;;;20.91;30.42;103154.44;4976251;28;46506;-56
2022/01/21 06:54:04;;;;;;;;;1.00;1.00;;;;;20.90;30.67;103155.34;4976087;28;45373;-58
2022/01/21 06:56:30;;;;;;;;;1.00;1.00;;;;;20.91;30.06;103161.50;4976174;28;45377;-56
2022/01/21 06:58:56;;;;;;;;;2.00;1.00;;;;;20.87;30.63;103160.69;4976370;28;45628;-53
2022/01/21 07:01:21;;;;;;;;;1.25;1.25;;;;;20.88;30.60;103169.44;4976206;28;46277;-51
2022/01/21 07:03:47;;;;;;;;;1.25;1.00;;;;;20.87;30.25;103168.59;4975986;28;45507;-53
2022/01/21 07:06:12;;;;;;;;;0.50;0.50;;;;;20.87;30.46;103176.50;4976362;28;45356;-50
2022/01/21 07:08:38;;;;;;;;;2.00;1.75;;;;;20.86;30.43;103172.13;4958914;28;45451;-50
2022/01/21 07:11:03;;;;;;;;;2.50;2.50;;;;;20.84;30.63;103182.69;4975787;28;46373;-50
2022/01/21 07:13:28;;;;;;;;;0.00;0.00;;;;;20.83;30.58;103183.59;4958397;28;45264;-51
2022/01/21 07:15:54;;;;;;;;;3.50;1.00;;;;;20.83;30.61;103191.50;4958555;28;45527;-58
2022/01/21 07:18:19;;;;;;;;;0.00;0.00;;;;;20.83;30.03;103190.63;4976147;28;45427;-60
2022/01/21 07:20:44;;;;;;;;;6.00;2.00;;;;;20.82;30.73;103195.03;4975525;28;45573;-54
2022/01/21 07:23:10;;;;;;;;;3.25;1.00;;;;;20.81;30.36;103185.41;4974776;28;46008;-54
2022/01/21 07:25:36;;;;;;;;;2.25;1.75;;;;;20.80;30.52;103195.94;4975879;28;45241;-56
2022/01/21 07:28:02;;;;;;;;;1.00;1.00;;;;;20.79;30.64;103196.84;4976158;28;45420;-56
2022/01/21 07:30:28;;;;;;;;;2.00;2.00;;;;;20.76;30.55;103191.66;4975612;28;47182;-57
2022/01/21 07:32:53;;;;;;;;;0.75;0.75;;;;;20.76;31.06;103196.94;4975986;28;45436;-57
2022/01/21 07:35:18;;;;;;;;;0.75;0.75;;;;;20.75;30.85;103196.03;4975790;28;45331;-57
2022/01/21 07:37:44;;;;;;;;;4.50;2.00;;;;;20.73;30.75;103196.94;4975835;28;45279;-56
2022/01/21 07:40:10;;;;;;;;;2.75;2.75;;;;;20.72;31.03;103196.09;4975727;28;45453;-55
2022/01/21 07:42:35;;;;;;;;;1.00;1.00;;;;;20.72;30.54;103203.09;4958926;28;45320;-59
2022/01/21 07:45:01;;;;;;;;;1.00;1.00;;;;;20.70;31.02;103209.28;4975773;28;45278;-59
2022/01/21 07:47:27;;;;;;;;;1.75;1.75;;;;;20.65;30.84;103200.59;4975854;28;45395;-54
2022/01/21 07:49:52;;;;;;;;;1.25;1.00;;;;;20.67;31.04;103205.81;4977083;28;45478;-50
2022/01/21 07:52:18;;;;;;;;;2.00;2.00;;;;;20.67;31.16;103213.72;4975281;28;45328;-53
2022/01/21 07:54:44;;;;;;;;;1.00;1.00;;;;;20.65;30.92;103215.53;4975812;28;45720;-54
2022/01/21 07:57:10;;;;;;;;;1.00;1.00;;;;;20.64;30.86;103217.31;4975846;28;45630;-52
2022/01/21 07:59:35;;;;;;;;;0.75;0.75;;;;;20.64;30.89;103225.19;4975240;28;45368;-51
2022/01/21 08:02:01;;;;;;;;;1.00;1.00;;;;;20.62;30.69;103224.34;4975218;28;45432;-52
2022/01/21 08:04:27;;;;;;;;;0.75;0.75;;;;;20.59;30.85;103223.53;4975357;28;45217;-57
2022/01/21 08:06:53;;;;;;;;;2.75;2.00;;;;;20.58;31.15;103225.28;4975641;28;45499;-57
2022/01/21 08:09:23;;;;;;;;;1.75;1.25;;;;;20.56;30.79;103227.09;4974837;28;46609;-58
2022/01/21 08:11:50;;;;;;;;;3.00;1.25;;;;;20.54;30.66;103228.91;4975338;28;45878;-60
2022/01/21 08:14:15;;;;;;;;;0.50;0.50;;;;;20.54;30.56;103228.91;4975677;28;45262;-50
2022/01/21 08:16:40;;;;;;;;;1.75;1.75;;;;;20.52;30.90;103230.69;4975788;28;45417;-55
2022/01/21 08:19:05;;;;;;;;;2.00;1.50;;;;;20.52;31.04;103235.97;4975059;28;46461;-60
2022/01/21 08:21:31;;;;;;;;;1.00;1.00;;;;;20.53;31.03;103232.44;4975073;28;45241;-58
2022/01/21 08:23:56;;;;;;;;;1.00;1.00;;;;;20.55;31.53;103238.53;4975259;28;45221;-54
2022/01/21 08:26:30;;;;;;;;;4.75;2.00;;;;;20.58;31.19;103237.63;4974711;28;45343;-51
2022/01/21 08:28:59;;;;;;;;;2.75;1.25;;;;;20.60;31.40;103249.84;4975027;28;45612;-53
2022/01/21 08:31:25;;;;;;;;;3.00;1.00;;;;;20.63;31.18;103238.38;4975029;28;45720;-57
2022/01/21 08:33:52;;;;;;;;;1.00;1.00;;;;;20.67;31.49;103240.09;4975068;28;45812;-55
2022/01/21 08:36:19;;;;;;;;;1.00;1.00;;;;;20.71;31.33;103236.50;4975420;28;45379;-55
2022/01/21 08:38:45;;;;;;;;;0.50;0.50;;;;;20.75;31.00;103234.72;4975143;28;46263;-58
2022/01/21 08:41:10;;;;;;;;;2.25;1.75;;;;;20.78;31.16;103237.31;4974927;28;45506;-57
2022/01/21 08:43:37;;;;;;;;;1.25;1.00;;;;;20.80;30.73;103233.72;4975135;28;45162;-57
2022/01/21 08:46:03;;;;;;;;;1.00;1.00;;;;;20.85;31.00;103241.56;4975106;28;45232;-59
2022/01/21 08:48:28;;;;;;;;;2.25;1.00;;;;;20.88;31.28;103246.78;4976004;28;45327;-55
2022/01/21 08:50:56;;;;;;;;;2.00;2.00;;;;;20.91;30.86;103243.22;4974834;28;45229;-58
2022/01/21 08:53:36;;;;;;;;;2.00;2.00;;;;;20.93;31.23;103242.28;4957259;28;45415;-52
2022/01/21 08:56:08;;;;;;;;;1.00;1.00;;;;;20.94;30.96;103244.00;4975076;28;45378;-57
2022/01/21 08:58:34;;;;;;;;;2.75;1.00;;;;;20.97;31.16;103241.31;4974585;28;46828;-53
2022/01/21 09:01:00;;;;;;;;;2.75;1.00;;;;;20.98;31.08;103245.69;4974661;28;45412;-58
2022/01/21 09:03:25;;;;;;;;;1.00;1.00;;;;;20.98;31.16;103237.78;4974633;28;45406;-54
2022/01/21 09:05:51;;;;;;;;;1.00;1.00;;;;;21.01;30.67;103247.41;4975036;28;45452;-56
2022/01/21 09:08:19;;;;;;;;;1.50;1.50;;;;;21.01;31.04;103242.97;4974695;28;46473;-54
2022/01/21 09:10:45;;;;;;;;;3.00;2.00;;;;;21.01;31.24;103245.63;4974647;28;45316;-52
2022/01/21 09:13:12;;;;;;;;;2.00;2.00;;;;;21.03;30.54;103244.72;4974509;28;45446;-56
2022/01/21 09:15:38;;;;;;;;;1.00;1.00;;;;;21.03;30.85;103252.63;4974722;28;45524;-54
2022/01/21 09:18:05;;;;;;;;;3.00;1.00;;;;;20.99;30.55;103246.56;4974421;28;45971;-49
2022/01/21 09:20:35;;;;;;;;;2.00;2.00;;;;;21.04;30.90;103255.25;4974414;28;45874;-54
2022/01/21 09:23:00;;;;;;;;;3.00;2.00;;;;;21.03;30.94;103253.53;4974508;28;45225;-56
2022/01/21 09:25:26;;;;;;;;;1.75;1.75;;;;;21.04;30.71;103259.66;4957064;28;45730;-53
2022/01/21 09:27:55;;;;;;;;;1.75;1.75;;;;;21.03;30.77;103255.28;4974249;28;46549;-51
2022/01/21 09:30:20;;;;;;;;;1.00;1.00;;;;;21.00;30.43;103261.47;4974545;28;45369;-54
2022/01/21 09:32:46;;;;;;;;;3.00;1.75;;;;;21.02;30.56;103264.97;4974797;28;45371;-52
2022/01/21 09:35:12;;;;;;;;;3.00;3.00;;;;;21.01;30.88;103266.72;4974438;28;45236;-58
2022/01/21 09:37:38;;;;;;;;;2.00;2.00;;;;;21.02;30.72;103272.88;4973274;28;46443;-55
2022/01/21 09:40:06;;;;;;;;;3.50;2.00;;;;;20.99;30.77;103272.91;4973820;28;45416;-59
2022/01/21 09:42:35;;;;;;;;;2.00;2.00;;;;;20.99;30.55;103284.34;4956665;28;45661;-55
2022/01/21 09:45:07;;;;;;;;;3.75;1.75;;;;;21.00;30.87;103288.69;4974258;28;45530;-55
2022/01/21 09:47:33;;;;;;;;;2.00;2.00;;;;;21.00;30.85;103290.47;4973829;28;46103;-54
2022/01/21 09:50:00;;;;;;;;;1.00;1.00;;;;;20.98;30.77;103292.28;4973997;28;45327;-49
2022/01/21 09:52:28;;;;;;;;;2.00;2.00;;;;;20.97;30.85;103296.69;4974039;28;45427;-56
2022/01/21 09:54:53;;;;;;;;;2.75;2.25;;;;;20.98;31.00;103310.72;4974086;28;45402;-57
2022/01/21 09:57:23;;;;;;;;;2.25;2.25;;;;;20.96;30.51;103305.50;4974114;28;45347;-57
2022/01/21 09:59:52;;;;;;;;;2.25;2.00;;;;;20.96;30.47;103301.97;4974148;28;45426;-59
2022/01/21 10:02:20;;;;;;;;;2.00;2.00;;;;;20.94;30.84;103302.00;4974317;28;45360;-58
2022/01/21 10:04:52;;;;;;;;;2.50;2.50;;;;;20.93;30.85;103313.44;4973531;28;45557;-52
2022/01/21 10:07:19;;;;;;;;;2.25;2.25;;;;;20.93;30.61;103307.31;4974256;28;45530;-58
2022/01/21 10:09:46;;;;;;;;;1.50;1.50;;;;;20.91;30.85;103309.97;4973428;28;45803;-52
2022/01/21 10:12:13;;;;;;;;;4.25;3.00;;;;;20.90;30.41;103300.31;4973719;28;45363;-58
2022/01/21 10:14:40;;;;;;;;;2.00;2.00;;;;;20.90;30.53;103310.84;4973893;28;45425;-59
2022/01/21 10:17:06;;;;;;;;;3.50;2.50;;;;;20.90;31.08;103308.22;4956159;28;46291;-59
2022/01/21 10:19:38;;;;;;;;;2.00;2.00;;;;;20.87;31.09;103304.78;4973601;28;45820;-57
2022/01/21 10:22:11;;;;;;;;;2.00;2.00;;;;;20.88;31.19;103312.69;4973662;28;45471;-58
2022/01/21 10:25:01;;;;;;;;;2.00;2.00;;;;;20.86;30.87;103309.19;4973747;28;45375;-57
2022/01/21 10:27:32;;;;;;;;;4.00;2.00;;;;;20.85;30.54;103310.09;4973540;28;47251;-59
2022/01/21 10:30:00;;;;;;;;;3.50;3.50;;;;;20.83;30.74;103304.84;4973409;28;45254;-59
2022/01/21 10:32:52;;;;;;;;;3.25;3.25;;;;;20.82;30.65;103304.84;4973420;28;45332;-56
2022/01/21 10:35:34;;;;;;;;;4.50;2.50;;;;;20.80;30.97;103310.16;4971099;28;45328;-56
2022/01/21 10:38:18;;;;;;;;;2.25;2.25;;;;;20.79;31.10;103308.44;4955738;28;45348;-59
2022/01/21 10:40:45;;;;;;;;;4.00;4.00;;;;;20.79;30.83;103312.81;4973316;28;45726;-60
2022/01/21 10:43:16;;;;;;;;;2.25;2.00;;;;;20.76;31.18;103302.34;4973361;28;45261;-58
2022/01/21 10:45:53;;;;;;;;;4.00;4.00;;;;;20.76;30.59;103310.25;4973486;28;45218;-56
2022/01/21 10:48:18;;;;;;;;;4.00;3.00;;;;;20.73;30.56;103308.47;4973526;28;46332;-50
2022/01/21 10:50:44;;;;;;;;;3.75;3.00;;;;;20.73;31.01;103308.47;4958020;28;45352;-55
2022/01/21 10:53:26;;;;;;;;;3.50;2.00;;;;;20.72;30.81;103314.69;4976229;28;45221;-53
2022/01/21 10:55:52;;;;;;;;;3.50;3.50;;;;;20.69;30.61;103312.94;4976631;28;45638;-58
2022/01/21 10:58:21;;;;;;;;;3.75;3.00;;;;;20.69;30.88;103296.28;4976011;28;46257;-58
2022/01/21 11:01:11;;;;;;;;;2.50;2.50;;;;;20.67;31.22;103301.53;4976034;28;45938;-57
2022/01/21 11:03:54;;;;;;;;;2.00;2.00;;;;;20.65;30.83;103295.47;4958758;28;45239;-52
2022/01/21 11:06:23;;;;;;;;;3.00;3.00;;;;;20.65;30.96;103297.22;4959141;28;45597;-52
2022/01/21 11:08:49;;;;;;;;;5.25;3.25;;;;;20.64;30.69;103295.47;4976468;28;45403;-55
2022/01/21 11:11:21;;;;;;;;;3.00;3.00;;;;;20.62;30.57;103292.88;4975867;28;45306;-48
2022/01/21 11:13:47;;;;;;;;;2.50;2.50;;;;;20.61;31.24;103290.28;4976193;28;45244;-59
2022/01/21 11:16:25;;;;;;;;;3.75;3.00;;;;;20.60;30.96;103291.16;4976085;28;45243;-58
2022/01/21 11:18:50;;;;;;;;;3.00;3.00;;;;;20.59;30.66;103290.28;4975862;28;45398;-55
2022/01/21 11:21:16;;;;;;;;;3.75;3.50;;;;;20.59;31.37;103292.06;4975860;28;45351;-60
2022/01/21 11:23:42;;;;;;;;;4.00;3.00;;;;;20.55;30.80;103288.59;4942637;28;45450;-61
2022/01/21 11:26:12;;;;;;;;;3.00;3.00;;;;;20.58;30.93;103292.94;4976184;28;45406;-58
2022/01/21 11:28:47;;;;;;;;;5.00;4.00;;;;;20.60;31.20;103288.53;4975614;28;46493;-59
2022/01/21 11:31:26;;;;;;;;;5.00;5.00;;;;;20.63;31.54;103293.72;4974607;28;45942;-58
2022/01/21 11:33:51;;;;;;;;;3.00;3.00;;;;;20.64;31.37;103284.91;4976317;28;45410;-54
2022/01/21 11:36:18;;;;;;;;;3.50;3.50;;;;;20.68;31.03;103292.75;4976106;28;45558;-56
2022/01/21 11:38:44;;;;;;;;;6.50;3.25;;;;;20.72;31.35;103284.78;4975642;28;45448;-58
2022/01/21 11:41:12;;;;;;;;;3.00;3.00;;;;;20.77;31.33;103293.53;4975733;28;45876;-62
2022/01/21 11:43:49;;;;;;;;;4.75;3.75;;;;;20.80;30.77;103283.81;4976244;28;45225;-57
2022/01/21 11:48:50;;;;;;;;;3.50;3.00;;;;;20.88;30.99;103291.59;4975586;28;46018;-59
2022/01/21 11:51:23;;;;;;;;;5.00;5.00;;;;;20.92;30.87;103281.84;4975680;28;45845;-55
2022/01/21 11:53:53;;;;;;;;;4.75;3.00;;;;;20.94;31.20;103280.91;4975506;28;45230;-57
2022/01/21 11:56:46;;;;;;;;;2.75;2.75;;;;;20.99;30.75;103284.34;4975697;28;45506;-55
2022/01/21 11:59:11;;;;;;;;;6.00;4.00;;;;;21.01;31.23;103276.41;4975112;28;45513;-59
2022/01/21 12:01:48;;;;;;;;;3.00;3.00;;;;;21.03;30.77;103284.28;4974388;28;45455;-56
2022/01/21 12:04:34;;;;;;;;;6.00;3.00;;;;;21.05;30.69;103286.00;4975421;28;45524;-57
2022/01/21 12:07:01;;;;;;;;;3.50;3.50;;;;;21.05;30.74;103287.75;4975580;28;45559;-59
2022/01/21 12:10:02;;;;;;;;;4.00;2.75;;;;;21.08;31.04;103282.44;4975323;28;46581;-52
2022/01/21 12:12:51;;;;;;;;;3.25;3.00;;;;;21.08;31.08;103274.53;4975110;28;45882;-59
2022/01/21 12:21:33;;;;;;;;;2.75;2.75;;;;;21.07;30.98;103276.28;4973498;28;45960;-53
2022/01/21 12:23:59;;;;;;;;;3.75;3.75;;;;;21.10;30.86;103278.00;4957477;28;45462;-55
2022/01/21 12:26:26;;;;;;;;;5.25;4.00;;;;;21.09;30.60;103271.00;4975464;28;45301;-56